Time;durP1;ratioP1;P1;durP2;ratioP2;P2;SDS_P1;SDS_P2;PMS_P1;PMS_P2;Temp;Humidity;BMP_temperature;BMP_pressure;BME280_temperature;BME280_humidity;BME280_pressure;Samples;Min_cycle;Max_cycle;Signal;HPM_P1;HPM_P2
2022/06/23 00:01:04;;;;;;;6.13;1.70;;;;;;;19.45;100.00;100363.88;5062638;28;20045;-81
2022/06/23 00:03:35;;;;;;;4.32;1.42;;;;;;;19.40;100.00;100363.41;5050005;28;20053;-81
2022/06/23 00:06:07;;;;;;;5.63;1.50;;;;;;;19.24;100.00;100367.28;5050260;28;20052;-81
2022/06/23 00:08:45;;;;;;;4.50;1.52;;;;;;;19.01;100.00;100355.00;5049031;28;20399;-81
2022/06/23 00:11:26;;;;;;;5.55;1.60;;;;;;;19.27;100.00;100364.38;5048684;28;20051;-81
2022/06/23 00:14:11;;;;;;;8.23;2.15;;;;;;;18.97;100.00;100381.75;5037784;28;20049;-81
2022/06/23 00:16:38;;;;;;;5.60;1.55;;;;;;;18.85;100.00;100373.94;5039655;28;20124;-81
2022/06/23 00:19:07;;;;;;;6.97;1.83;;;;;;;18.63;100.00;100369.41;5051084;28;20135;-81
2022/06/23 00:21:36;;;;;;;5.03;1.50;;;;;;;18.70;100.00;100350.25;5048312;28;20087;-81
2022/06/23 00:24:10;;;;;;;5.72;1.58;;;;;;;19.10;100.00;100362.22;5047392;28;20045;-81
2022/06/23 00:26:37;;;;;;;6.25;1.60;;;;;;;19.09;100.00;100345.47;5049797;28;20041;-81
2022/06/23 00:29:10;;;;;;;4.32;1.40;;;;;;;19.09;100.00;100342.81;5036179;28;20049;-81
2022/06/23 00:31:41;;;;;;;6.82;1.42;;;;;;;19.29;100.00;100358.94;5052651;28;20533;-81
2022/06/23 00:34:23;;;;;;;9.65;1.60;;;;;;;18.97;100.00;100343.78;5054997;28;20049;-81
2022/06/23 00:36:53;;;;;;;6.55;1.65;;;;;;;19.02;100.00;100372.63;5050365;28;20049;-81
2022/06/23 00:39:22;;;;;;;5.28;1.58;;;;;;;18.92;100.00;100365.34;5053675;28;20078;-81
2022/06/23 00:41:50;;;;;;;5.80;1.60;;;;;;;18.43;100.00;100355.03;5049683;28;20049;-81
2022/06/23 00:44:34;;;;;;;5.45;1.75;;;;;;;18.60;100.00;100384.59;5053287;28;20083;-81
2022/06/23 00:47:05;;;;;;;8.20;2.00;;;;;;;18.67;100.00;100370.88;5053562;28;20131;-81
2022/06/23 00:49:45;;;;;;;7.20;1.58;;;;;;;18.55;100.00;100354.09;5054079;28;20063;-81
2022/06/23 00:52:22;;;;;;;6.55;1.50;;;;;;;18.67;100.00;100365.56;5069297;28;20049;-81
2022/06/23 00:54:54;;;;;;;7.95;1.65;;;;;;;18.52;100.00;100341.06;5054607;28;20524;-80
2022/06/23 00:57:40;;;;;;;4.05;1.30;;;;;;;18.51;100.00;100339.41;5049690;28;20049;-81
2022/06/23 01:00:36;;;;;;;5.40;1.58;;;;;;;18.74;100.00;100364.97;5053767;28;20378;-81
2022/06/23 01:03:24;;;;;;;2.22;1.00;;;;;;;18.82;100.00;100352.94;5050094;28;20037;-81
2022/06/23 01:05:59;;;;;;;4.35;1.35;;;;;;;18.74;100.00;100356.16;5052909;28;20052;-80
2022/06/23 01:08:34;;;;;;;7.38;1.48;;;;;;;18.59;100.00;100347.59;5052965;28;20132;-81
2022/06/23 01:11:13;;;;;;;5.93;1.40;;;;;;;18.66;100.00;100353.25;5052488;28;20514;-81
2022/06/23 01:13:43;;;;;;;5.15;1.48;;;;;;;18.49;100.00;100359.88;5053873;28;20051;-81
2022/06/23 01:16:40;;;;;;;5.28;1.80;;;;;;;17.66;100.00;100348.38;5052751;28;20483;-81
2022/06/23 01:19:33;;;;;;;7.00;1.80;;;;;;;17.83;100.00;100360.38;5051485;28;20087;-80
2022/06/23 01:22:04;;;;;;;4.45;1.45;;;;;;;18.16;100.00;100342.94;5037564;28;20048;-81
2022/06/23 01:24:53;;;;;;;10.00;1.70;;;;;;;17.79;100.00;100346.47;5038811;28;20049;-81
2022/06/23 01:28:17;;;;;;;5.90;1.73;;;;;;;18.01;100.00;100348.44;5053806;28;20045;-80
2022/06/23 01:30:57;;;;;;;7.53;1.70;;;;;;;17.91;100.00;100344.78;4993359;28;20128;-80
2022/06/23 01:33:27;;;;;;;7.40;1.63;;;;;;;18.31;100.00;100344.41;5011398;28;20061;-81
2022/06/23 01:36:23;;;;;;;3.10;1.40;;;;;;;18.33;100.00;100350.44;5027647;28;20057;-81
2022/06/23 01:39:02;;;;;;;6.05;1.70;;;;;;;18.25;100.00;100347.53;5037816;28;20509;-80
2022/06/23 01:41:42;;;;;;;4.05;1.35;;;;;;;18.16;100.00;100327.03;5064445;28;20049;-81
2022/06/23 01:44:27;;;;;;;5.60;1.80;;;;;;;18.33;100.00;100337.19;5053248;28;20051;-80
2022/06/23 01:46:57;;;;;;;5.65;1.65;;;;;;;18.21;100.00;100344.25;5057227;28;20041;-81
2022/06/23 01:49:30;;;;;;;5.85;1.50;;;;;;;18.15;100.00;100352.69;5053315;28;20049;-81
2022/06/23 01:52:10;;;;;;;5.57;1.70;;;;;;;17.99;100.00;100345.06;5050649;28;20053;-81
2022/06/23 01:54:39;;;;;;;4.43;1.35;;;;;;;17.89;100.00;100359.09;5052887;28;20055;-81
2022/06/23 01:57:25;;;;;;;6.18;1.83;;;;;;;17.72;100.00;100362.94;5052306;28;20068;-80
2022/06/23 02:00:22;;;;;;;5.82;1.55;;;;;;;17.99;100.00;100358.28;5051922;28;20045;-81
2022/06/23 02:03:10;;;;;;;4.95;1.50;;;;;;;17.91;100.00;100354.53;5051434;28;20049;-81
2022/06/23 02:05:45;;;;;;;5.00;1.42;;;;;;;17.76;100.00;100353.81;5047968;28;20073;-80
2022/06/23 02:08:40;;;;;;;4.72;1.60;;;;;;;17.64;100.00;100345.81;5037976;28;20050;-80
2022/06/23 02:11:31;;;;;;;3.85;1.50;;;;;;;17.72;100.00;100347.91;5047415;28;20128;-80
2022/06/23 02:14:42;;;;;;;4.13;1.30;;;;;;;17.66;100.00;100332.47;5040082;28;20049;-80
2022/06/23 02:17:18;;;;;;;4.70;1.40;;;;;;;17.89;100.00;100340.56;5053241;28;20044;-81
2022/06/23 02:19:52;;;;;;;6.85;1.50;;;;;;;17.98;100.00;100321.31;5051907;28;20139;-80
2022/06/23 02:22:43;;;;;;;5.70;1.38;;;;;;;17.94;100.00;100336.59;5043794;28;20476;-80
2022/06/23 02:25:25;;;;;;;4.35;1.20;;;;;;;17.81;100.00;100328.72;5067185;28;20162;-80
2022/06/23 02:28:10;;;;;;;2.60;1.10;;;;;;;17.88;100.00;100331.75;5050445;28;20439;-80
2022/06/23 02:30:53;;;;;;;4.90;1.23;;;;;;;17.69;100.00;100310.22;5049008;28;20041;-80
2022/06/23 02:33:46;;;;;;;5.40;1.58;;;;;;;17.77;100.00;100334.34;5037050;28;20064;-80
2022/06/23 02:36:16;;;;;;;3.42;1.30;;;;;;;17.48;100.00;100332.03;5051513;28;20049;-81
2022/06/23 02:38:48;;;;;;;2.83;1.20;;;;;;;17.16;100.00;100327.28;5052882;28;20048;-80
2022/06/23 02:41:23;;;;;;;4.32;1.38;;;;;;;17.49;100.00;100331.06;5045951;28;20052;-81
2022/06/23 02:43:58;;;;;;;4.13;1.40;;;;;;;17.46;100.00;100334.78;5052053;28;20055;-81
2022/06/23 02:46:32;;;;;;;5.70;1.33;;;;;;;17.46;100.00;100339.25;5051053;28;20079;-80
2022/06/23 02:49:24;;;;;;;3.63;1.20;;;;;;;17.51;100.00;100333.59;5047269;28;20064;-80
2022/06/23 02:52:35;;;;;;;4.60;1.25;;;;;;;17.37;100.00;100332.81;5045639;28;20053;-81
2022/06/23 02:55:24;;;;;;;4.25;1.27;;;;;;;17.22;100.00;100295.06;5038137;28;20064;-81
2022/06/23 02:58:08;;;;;;;4.93;1.52;;;;;;;17.38;100.00;100321.25;5051305;28;20055;-80
2022/06/23 03:00:44;;;;;;;2.53;1.08;;;;;;;17.58;100.00;100330.41;5038395;28;20045;-81
2022/06/23 03:03:20;;;;;;;3.30;1.20;;;;;;;17.14;100.00;100329.19;5048907;28;20049;-81
2022/06/23 03:05:54;;;;;;;2.30;1.20;;;;;;;16.58;100.00;100329.53;5057136;28;20064;-81
2022/06/23 03:08:28;;;;;;;2.05;0.90;;;;;;;16.38;100.00;100270.16;5067745;28;20049;-80
2022/06/23 03:11:15;;;;;;;2.92;1.00;;;;;;;16.97;100.00;100326.91;5049037;28;20087;-80
2022/06/23 03:13:45;;;;;;;2.88;1.20;;;;;;;16.93;100.00;100325.41;5056086;28;20048;-81
2022/06/23 03:16:25;;;;;;;3.40;1.38;;;;;;;16.92;100.00;100307.84;5044890;28;20057;-80
2022/06/23 03:18:59;;;;;;;3.63;1.25;;;;;;;16.76;100.00;100335.34;5053408;28;20131;-80
2022/06/23 03:21:31;;;;;;;2.42;1.08;;;;;;;16.69;100.00;100328.78;5064025;28;20422;-80
2022/06/23 03:24:08;;;;;;;3.83;1.20;;;;;;;16.59;100.00;100317.16;5069416;28;20058;-81
2022/06/23 03:26:53;;;;;;;3.15;1.10;;;;;;;16.76;100.00;100335.34;5067062;28;20414;-81
2022/06/23 03:29:31;;;;;;;2.92;1.15;;;;;;;16.67;100.00;100325.41;5070706;28;20052;-81
2022/06/23 03:32:10;;;;;;;4.30;1.00;;;;;;;16.53;100.00;100336.94;5053749;28;20128;-80
2022/06/23 03:34:44;;;;;;;3.08;1.00;;;;;;;16.86;100.00;100332.94;5061427;28;20045;-80
2022/06/23 03:37:20;;;;;;;2.72;1.00;;;;;;;17.02;100.00;100325.59;5056640;28;20049;-81
2022/06/23 03:43:08;;;;;;;1.80;1.02;;;;;;;17.08;100.00;100308.44;5047423;28;20058;-80
2022/06/23 03:45:41;;;;;;;3.60;1.10;;;;;;;17.24;100.00;100316.13;5069403;28;20048;-80
2022/06/23 03:48:26;;;;;;;2.67;1.15;;;;;;;17.32;100.00;100321.72;5046418;28;20053;-81
2022/06/23 03:51:14;;;;;;;2.47;0.98;;;;;;;17.36;100.00;100319.69;5050178;28;20045;-81
2022/06/23 03:54:02;;;;;;;2.60;1.00;;;;;;;17.25;100.00;100308.09;5062497;28;20048;-80
2022/06/23 03:56:42;;;;;;;2.75;1.10;;;;;;;16.97;100.00;100318.97;5059665;28;20550;-80
2022/06/23 03:59:15;;;;;;;2.08;1.00;;;;;;;16.72;100.00;100315.38;5042011;28;20048;-81
2022/06/23 04:01:46;;;;;;;2.90;1.00;;;;;;;16.88;100.00;100325.75;5049444;28;20055;-81
2022/06/23 04:04:18;;;;;;;3.28;1.05;;;;;;;17.27;100.00;100332.63;5050225;28;20060;-81
2022/06/23 04:06:47;;;;;;;1.70;1.00;;;;;;;17.45;100.00;100330.44;5070946;28;20075;-81
2022/06/23 04:09:23;;;;;;;3.28;1.00;;;;;;;17.37;100.00;100330.16;5056474;28;20410;-81
2022/06/23 04:12:15;;;;;;;2.60;0.98;;;;;;;17.77;100.00;100323.75;5069299;28;20045;-81
2022/06/23 04:14:52;;;;;;;1.95;1.02;;;;;;;18.67;100.00;100318.66;5054283;28;20132;-81
2022/06/23 04:17:34;;;;;;;3.60;1.00;;;;;;;19.76;100.00;100318.88;5053984;28;20070;-80
2022/06/23 04:20:12;;;;;;;2.72;0.95;;;;;;;19.81;100.00;100309.56;5058366;28;20041;-81
2022/06/23 04:22:46;;;;;;;2.45;1.00;;;;;;;20.03;100.00;100308.63;5053416;28;20059;-81
2022/06/23 04:25:18;;;;;;;3.00;1.00;;;;;;;20.86;100.00;100314.84;5058746;28;20044;-81
2022/06/23 04:27:49;;;;;;;3.13;0.97;;;;;;;20.80;100.00;100295.91;5064399;28;20055;-82
2022/06/23 04:30:38;;;;;;;2.50;0.80;;;;;;;21.28;99.60;100313.81;5058636;28;20050;-81
2022/06/23 04:33:13;;;;;;;2.40;0.90;;;;;;;21.21;95.25;100302.91;5067137;28;20045;-81
2022/06/23 04:35:41;;;;;;;3.13;0.85;;;;;;;21.54;91.01;100310.66;5071957;28;20049;-81
2022/06/23 04:38:10;;;;;;;2.80;0.80;;;;;;;21.94;89.24;100328.34;5057053;28;20045;-80
2022/06/23 04:40:43;;;;;;;3.42;0.80;;;;;;;22.42;86.24;100315.97;5067700;28;20067;-80
2022/06/23 04:43:28;;;;;;;1.67;0.60;;;;;;;22.82;82.30;100317.47;5055644;28;20077;-81
2022/06/23 04:45:57;;;;;;;2.85;0.70;;;;;;;22.62;78.33;100317.56;5042307;28;20356;-81
2022/06/23 04:48:39;;;;;;;2.55;0.85;;;;;;;23.30;76.38;100309.25;5054682;28;20041;-81
2022/06/23 04:51:28;;;;;;;1.45;0.52;;;;;;;24.47;69.23;100309.22;5035474;28;20052;-81
2022/06/23 04:54:01;;;;;;;2.28;0.70;;;;;;;23.85;76.22;100313.63;5064553;28;20053;-81
2022/06/23 04:56:54;;;;;;;2.03;0.70;;;;;;;23.78;66.24;100314.34;5057089;28;20053;-83
2022/06/23 04:59:24;;;;;;;2.67;0.60;;;;;;;23.08;71.65;100310.50;5077267;28;20132;-84
2022/06/23 05:01:55;;;;;;;1.05;0.43;;;;;;;22.55;77.08;100317.28;5050704;28;20140;-82
2022/06/23 05:04:30;;;;;;;2.55;0.60;;;;;;;21.34;77.66;100281.31;5058866;28;20041;-82
2022/06/23 05:07:00;;;;;;;2.53;0.65;;;;;;;21.23;76.70;100262.81;5060662;28;20054;-82
2022/06/23 05:09:56;;;;;;;2.63;0.70;;;;;;;21.56;81.65;100303.38;5061448;28;20059;-85
2022/06/23 05:12:32;;;;;;;0.75;0.50;;;;;;;20.49;84.17;100299.38;5048741;28;20080;-84
2022/06/23 05:15:21;;;;;;;1.77;0.68;;;;;;;19.94;94.24;100300.56;5077716;28;20083;-84
2022/06/23 05:17:57;;;;;;;1.63;0.60;;;;;;;19.73;95.80;100280.13;5064376;28;20084;-83
2022/06/23 05:20:40;;;;;;;1.40;0.70;;;;;;;20.43;97.43;100304.38;5072375;28;20076;-84
2022/06/23 05:23:17;;;;;;;2.20;0.60;;;;;;;21.71;88.06;100262.03;5074610;28;20080;-84
2022/06/23 05:25:51;;;;;;;5.38;0.90;;;;;;;22.07;80.22;100258.75;5063263;28;20080;-84
2022/06/23 05:28:23;;;;;;;3.15;0.73;;;;;;;22.27;80.08;100260.38;5063184;28;20119;-84
2022/06/23 05:30:59;;;;;;;2.15;0.70;;;;;;;23.07;74.88;100291.94;5063151;28;20112;-84
2022/06/23 05:33:34;;;;;;;1.48;0.60;;;;;;;23.67;72.07;100261.97;5065667;28;20487;-84
2022/06/23 05:36:05;;;;;;;1.63;0.60;;;;;;;23.81;69.54;100229.38;5065578;28;20048;-84
2022/06/23 05:38:55;;;;;;;2.60;0.85;;;;;;;24.21;69.41;100304.72;5059862;28;20132;-85
2022/06/23 05:41:36;;;;;;;1.17;0.50;;;;;;;22.63;74.81;100283.72;5053714;28;20124;-84
2022/06/23 05:44:07;;;;;;;2.50;0.73;;;;;;;21.95;80.68;100288.22;5078238;28;20080;-85
2022/06/23 05:46:40;;;;;;;2.92;0.95;;;;;;;22.22;79.05;100293.78;5067639;28;20534;-84
2022/06/23 05:49:30;;;;;;;4.00;0.70;;;;;;;23.23;74.79;100275.25;5064238;28;20075;-85
2022/06/23 05:52:14;;;;;;;4.10;0.80;;;;;;;23.19;74.02;100296.09;5057187;28;20551;-84
2022/06/23 05:55:02;;;;;;;3.47;0.80;;;;;;;21.80;78.23;100250.50;5068380;28;20494;-85
2022/06/23 05:57:37;;;;;;;2.22;0.60;;;;;;;22.03;80.50;100299.97;5059945;28;20080;-85
2022/06/23 06:00:38;;;;;;;1.80;0.73;;;;;;;22.53;77.69;100267.75;5073401;28;20483;-84
2022/06/23 06:03:32;;;;;;;2.63;0.88;;;;;;;22.28;76.09;100271.91;5064858;28;20045;-86
2022/06/23 06:06:02;;;;;;;2.20;0.90;;;;;;;22.46;75.16;100291.50;5066062;28;20053;-85
2022/06/23 06:11:47;;;;;;;1.92;0.70;;;;;;;23.75;70.30;100304.00;5062351;28;20117;-85
2022/06/23 06:14:19;;;;;;;2.50;0.60;;;;;;;24.10;67.39;100243.44;5043598;28;20045;-86
2022/06/23 06:17:01;;;;;;;3.67;0.73;;;;;;;23.37;69.22;100271.22;5062569;28;20052;-84
2022/06/23 06:19:31;;;;;;;3.63;0.70;;;;;;;24.61;70.55;100285.41;5069149;28;20048;-85
2022/06/23 06:22:10;;;;;;;4.20;1.08;;;;;;;24.56;64.31;100241.38;5067925;28;20558;-85
2022/06/23 06:24:45;;;;;;;4.40;1.40;;;;;;;24.01;68.26;100248.75;5068802;28;20060;-84
2022/06/23 06:27:13;;;;;;;7.60;1.67;;;;;;;25.02;65.00;100279.38;5064907;28;20612;-85
2022/06/23 06:29:43;;;;;;;4.43;1.33;;;;;;;25.82;63.51;100276.16;5066084;28;20376;-83
2022/06/23 06:32:28;;;;;;;7.68;1.60;;;;;;;25.48;63.74;100284.34;5061063;28;20380;-84
2022/06/23 06:35:11;;;;;;;6.45;1.52;;;;;;;24.86;67.14;100274.81;5058256;28;20496;-84
2022/06/23 06:37:44;;;;;;;5.35;1.48;;;;;;;24.70;67.13;100226.53;5068321;28;20045;-84
2022/06/23 06:40:12;;;;;;;8.35;1.73;;;;;;;24.50;69.16;100242.00;5074797;28;20072;-84
2022/06/23 06:42:44;;;;;;;5.80;1.65;;;;;;;24.30;68.20;100271.66;5056068;28;20479;-84
2022/06/23 06:45:17;;;;;;;5.45;1.27;;;;;;;24.63;67.09;100213.81;5065041;28;20072;-84
2022/06/23 06:47:44;;;;;;;7.13;1.63;;;;;;;25.02;64.75;100258.78;5080287;28;20068;-84
2022/06/23 06:50:20;;;;;;;9.52;1.40;;;;;;;25.52;63.40;100267.78;5067724;28;20131;-85
2022/06/23 06:52:49;;;;;;;5.85;1.55;;;;;;;24.23;66.65;100263.44;5064687;28;20060;-84
2022/06/23 06:55:25;;;;;;;6.30;1.50;;;;;;;22.96;73.88;100273.44;5071484;28;20068;-84
2022/06/23 06:57:58;;;;;;;3.85;1.00;;;;;;;22.64;78.50;100270.22;5072906;28;20048;-84
2022/06/23 07:00:33;;;;;;;6.38;1.20;;;;;;;22.73;78.03;100271.16;5063468;28;20056;-84
2022/06/23 07:03:03;;;;;;;4.00;1.15;;;;;;;22.43;80.46;100254.44;5065640;28;20049;-84
2022/06/23 07:05:47;;;;;;;5.03;1.27;;;;;;;22.43;83.54;100246.44;5066437;28;20040;-83
2022/06/23 07:08:23;;;;;;;5.93;1.23;;;;;;;22.39;84.49;100228.22;5062595;28;20106;-85
2022/06/23 07:10:56;;;;;;;7.35;1.80;;;;;;;22.17;88.18;100270.22;5064137;28;20046;-85
2022/06/23 07:13:41;;;;;;;10.60;2.83;;;;;;;21.42;98.13;100257.53;5062468;28;20042;-84
2022/06/23 07:16:38;;;;;;;9.10;2.28;;;;;;;21.40;100.00;100267.44;5060937;28;20073;-84
2022/06/23 07:19:09;;;;;;;10.13;2.85;;;;;;;20.95;100.00;100248.50;5051713;28;20121;-82
2022/06/23 07:21:49;;;;;;;9.70;3.13;;;;;;;20.85;100.00;100224.50;5068245;28;20061;-84
2022/06/23 07:24:28;;;;;;;7.22;2.75;;;;;;;21.80;99.82;100257.66;5056832;28;20065;-84
2022/06/23 07:27:20;;;;;;;13.18;3.63;;;;;;;21.58;100.00;100286.28;5054900;28;20059;-84
2022/06/23 07:30:04;;;;;;;13.50;4.38;;;;;;;21.78;100.00;100262.31;5066736;28;20121;-84
2022/06/23 07:32:41;;;;;;;9.63;2.97;;;;;;;22.38;96.85;100283.38;5059423;28;20049;-84
2022/06/23 07:35:14;;;;;;;12.95;3.25;;;;;;;23.29;89.30;100302.22;5061979;28;20049;-83
2022/06/23 07:38:13;;;;;;;9.30;2.38;;;;;;;23.51;84.66;100278.72;5061539;28;20077;-84
2022/06/23 07:40:51;;;;;;;6.35;1.98;;;;;;;23.55;80.43;100269.41;5052975;28;20049;-83
2022/06/23 07:43:52;;;;;;;5.68;1.80;;;;;;;24.32;76.66;100261.63;5059923;28;20056;-83
2022/06/23 07:46:19;;;;;;;7.93;2.25;;;;;;;24.30;77.41;100260.13;5070511;28;20072;-84
2022/06/23 07:48:46;;;;;;;6.75;1.70;;;;;;;24.31;74.19;100268.00;5064110;28;20052;-84
2022/06/23 07:51:14;;;;;;;5.85;1.80;;;;;;;23.55;75.79;100248.03;5064061;28;20075;-84
2022/06/23 07:53:45;;;;;;;11.38;1.92;;;;;;;23.29;78.45;100239.94;5063686;28;20080;-84
2022/06/23 07:56:16;;;;;;;10.98;1.95;;;;;;;23.39;82.12;100262.09;5069442;28;20135;-84
2022/06/23 07:58:46;;;;;;;6.53;1.52;;;;;;;24.60;71.31;100226.69;5068219;28;20049;-84
2022/06/23 08:01:36;;;;;;;8.07;1.95;;;;;;;23.26;73.76;100240.25;5063176;28;20102;-84
2022/06/23 08:04:37;;;;;;;8.70;2.00;;;;;;;25.25;72.33;100279.66;5060960;28;20056;-85
2022/06/23 08:07:08;;;;;;;4.32;1.10;;;;;;;24.85;70.66;100278.47;5056243;28;20045;-85
2022/06/23 08:09:44;;;;;;;5.18;1.10;;;;;;;25.05;69.98;100230.00;5060607;28;20144;-83
2022/06/23 08:18:01;;;;;;;7.13;1.30;;;;;;;26.30;66.40;100274.44;5066279;28;20048;-85
2022/06/23 08:20:33;;;;;;;3.85;0.93;;;;;;;25.52;64.57;100281.19;5067281;28;20041;-85
2022/06/23 08:23:02;;;;;;;4.18;1.10;;;;;;;26.26;65.03;100248.13;5061283;28;20132;-85
2022/06/23 08:25:30;;;;;;;4.20;1.30;;;;;;;25.93;61.35;100251.72;5041914;28;20099;-83
2022/06/23 08:27:58;;;;;;;4.70;1.20;;;;;;;25.31;62.58;100249.50;5053265;28;20067;-83
2022/06/23 08:30:27;;;;;;;2.75;0.90;;;;;;;25.53;63.89;100236.44;5045574;28;20075;-84
2022/06/23 08:32:55;;;;;;;7.50;1.50;;;;;;;25.88;63.00;100243.28;5051716;28;20087;-84
2022/06/23 08:35:28;;;;;;;4.40;1.00;;;;;;;25.52;61.92;100258.91;5058906;28;20132;-83
2022/06/23 08:38:03;;;;;;;4.55;1.20;;;;;;;25.09;61.29;100269.69;5056054;28;20050;-84
2022/06/23 08:40:42;;;;;;;5.80;0.80;;;;;;;25.58;60.99;100266.25;5052545;28;20133;-84
2022/06/23 08:43:25;;;;;;;6.22;1.17;;;;;;;25.48;60.31;100236.97;5047107;28;20040;-84
2022/06/23 08:46:10;;;;;;;4.28;1.08;;;;;;;25.74;60.56;100262.75;5056941;28;20140;-83
2022/06/23 08:49:00;;;;;;;4.03;1.08;;;;;;;26.77;57.67;100221.78;5057579;28;20120;-82
2022/06/23 08:51:45;;;;;;;3.78;1.20;;;;;;;26.69;58.07;100254.06;5051655;28;20055;-84
2022/06/23 08:54:39;;;;;;;4.85;1.15;;;;;;;26.48;59.09;100220.53;5057313;28;20057;-83
2022/06/23 08:57:14;;;;;;;7.70;1.65;;;;;;;25.77;59.81;100236.44;5059681;28;20048;-84
2022/06/23 09:00:08;;;;;;;5.40;0.90;;;;;;;25.86;60.25;100257.91;5061634;28;20049;-84
2022/06/23 09:02:58;;;;;;;5.75;1.30;;;;;;;25.70;62.45;100248.84;5047304;28;20049;-84
2022/06/23 09:05:44;;;;;;;10.93;1.63;;;;;;;25.71;63.71;100255.03;5053952;28;20541;-83
2022/06/23 09:08:18;;;;;;;5.57;1.40;;;;;;;25.38;64.79;100214.84;5060652;28;20059;-83
2022/06/23 09:11:10;;;;;;;6.90;1.50;;;;;;;25.65;61.17;100210.16;5057396;28;20045;-83
2022/06/23 09:13:50;;;;;;;4.53;1.13;;;;;;;26.14;62.13;100269.94;5052423;28;20055;-83
2022/06/23 09:16:51;;;;;;;12.98;2.20;;;;;;;24.81;69.98;100272.63;5060948;28;20081;-82
2022/06/23 09:19:17;;;;;;;7.47;1.70;;;;;;;25.82;67.52;100278.03;5055414;28;20063;-83
2022/06/23 09:22:02;;;;;;;10.27;1.98;;;;;;;25.17;66.74;100280.41;5053587;28;20065;-83
2022/06/23 09:24:48;;;;;;;8.50;2.10;;;;;;;25.23;66.77;100248.63;5047416;28;20128;-83
2022/06/23 09:27:21;;;;;;;9.57;2.20;;;;;;;24.76;70.10;100234.78;5058872;28;20056;-82
2022/06/23 09:29:55;;;;;;;9.02;2.05;;;;;;;25.16;67.52;100269.84;5071982;28;20045;-81
2022/06/23 09:32:31;;;;;;;10.52;2.60;;;;;;;25.30;67.30;100279.13;5048276;28;20098;-83
2022/06/23 09:35:07;;;;;;;11.50;2.45;;;;;;;24.63;69.72;100211.16;5051744;28;20113;-82
2022/06/23 09:37:58;;;;;;;6.88;1.65;;;;;;;25.71;66.16;100271.13;5059720;28;20041;-84
2022/06/23 09:40:57;;;;;;;7.72;2.20;;;;;;;24.90;64.56;100195.84;5064235;28;20117;-85
2022/06/23 09:44:02;;;;;;;9.73;2.33;;;;;;;25.40;67.24;100271.78;5050514;28;20047;-84
2022/06/23 09:46:42;;;;;;;8.45;2.30;;;;;;;24.81;68.52;100266.44;5064165;28;20045;-83
2022/06/23 09:49:15;;;;;;;6.80;2.10;;;;;;;25.15;68.94;100255.63;5063616;28;20105;-84
2022/06/23 09:52:18;;;;;;;7.25;2.45;;;;;;;24.60;67.56;100219.50;5062431;28;20075;-85
2022/06/23 09:55:06;;;;;;;8.32;2.33;;;;;;;24.66;68.40;100254.66;5052783;28;20076;-85
2022/06/23 09:58:03;;;;;;;9.85;2.63;;;;;;;25.19;67.21;100262.31;5062911;28;20049;-83
2022/06/23 10:00:46;;;;;;;5.88;1.88;;;;;;;25.44;66.04;100259.72;5056333;28;20148;-84
2022/06/23 10:03:58;;;;;;;6.85;1.58;;;;;;;25.57;66.04;100245.84;5053931;28;20794;-84
2022/06/23 10:06:59;;;;;;;8.75;2.25;;;;;;;24.63;67.95;100267.34;5000993;28;20045;-84
2022/06/23 10:09:53;;;;;;;7.18;2.10;;;;;;;25.34;65.87;100259.06;5001907;28;20077;-84
2022/06/23 10:12:22;;;;;;;6.72;1.65;;;;;;;26.21;64.66;100255.88;5054154;28;20048;-84
2022/06/23 10:15:10;;;;;;;6.72;1.65;;;;;;;26.07;63.49;100241.31;5061523;28;20136;-84
2022/06/23 10:17:46;;;;;;;5.47;1.80;;;;;;;25.46;64.75;100251.50;5061183;28;20085;-85
2022/06/23 10:20:55;;;;;;;6.90;1.92;;;;;;;25.62;64.65;100242.66;5060475;28;20053;-84
2022/06/23 10:23:59;;;;;;;7.43;2.00;;;;;;;26.10;61.81;100240.94;5019062;28;20156;-84
2022/06/23 10:26:49;;;;;;;;;;;;;;;25.76;63.66;100233.91;5045793;28;20072;-83
2022/06/23 10:29:45;;;;;;;6.60;1.83;;;;;;;25.26;64.13;100184.03;5064798;28;19955;-83
2022/06/23 10:32:31;;;;;;;12.85;2.13;;;;;;;25.62;62.41;100246.19;5060134;28;20052;-84
2022/06/23 10:35:24;;;;;;;9.02;2.22;;;;;;;25.37;66.57;100239.94;5062524;28;20048;-81
2022/06/23 10:38:06;;;;;;;5.15;1.45;;;;;;;25.45;61.11;100146.16;5062675;28;20045;-84
2022/06/23 10:41:02;;;;;;;4.90;1.65;;;;;;;26.02;63.42;100241.81;5079474;28;20159;-83
2022/06/23 10:43:47;;;;;;;8.23;2.00;;;;;;;25.66;62.37;100226.06;5054062;28;20542;-83
2022/06/23 10:46:19;;;;;;;8.43;2.25;;;;;;;25.19;62.28;100168.56;5067509;28;20117;-82
2022/06/23 10:48:58;;;;;;;7.03;1.73;;;;;;;25.72;62.42;100230.75;5061035;28;20053;-85
2022/06/23 10:51:27;;;;;;;6.85;1.73;;;;;;;25.49;63.90;100233.25;5060479;28;20057;-82
2022/06/23 10:54:23;;;;;;;9.23;2.10;;;;;;;25.34;63.20;100200.94;5055547;28;20151;-84
2022/06/23 10:57:08;;;;;;;3.63;1.25;;;;;;;26.50;60.95;100223.88;5041697;28;20072;-84
2022/06/23 10:59:36;;;;;;;4.93;1.38;;;;;;;26.56;59.78;100224.19;5042010;28;20053;-85
2022/06/23 11:02:35;;;;;;;4.22;1.30;;;;;;;26.24;60.78;100181.22;5052127;28;20131;-85
2022/06/23 11:05:21;;;;;;;6.95;1.83;;;;;;;25.82;61.80;100186.84;5048240;28;20057;-84
2022/06/23 11:08:11;;;;;;;5.60;1.63;;;;;;;26.05;60.32;100155.63;5058812;28;20053;-83
2022/06/23 11:10:38;;;;;;;6.43;1.70;;;;;;;26.29;60.01;100216.44;5058001;28;20077;-86
2022/06/23 11:13:23;;;;;;;5.30;1.58;;;;;;;26.02;60.88;100214.97;5046834;28;20076;-84
2022/06/23 11:15:56;;;;;;;5.95;1.75;;;;;;;26.11;61.25;100205.91;5058247;28;20049;-84
2022/06/23 11:18:35;;;;;;;;;;;;;;;25.79;62.63;100211.31;5067305;28;20076;-85
2022/06/23 11:21:27;;;;;;;4.93;1.33;;;;;;;26.10;61.83;100204.25;5057978;28;19965;-84
2022/06/23 11:24:16;;;;;;;5.63;1.65;;;;;;;25.75;62.90;100162.56;5048273;28;20188;-85
2022/06/23 11:27:20;;;;;;;8.68;1.95;;;;;;;25.71;63.17;100188.88;5057699;28;20137;-84
2022/06/23 11:30:10;;;;;;;7.00;1.38;;;;;;;26.16;61.60;100204.56;5059030;28;20049;-85
2022/06/23 11:33:23;;;;;;;5.45;1.50;;;;;;;25.41;63.47;100200.25;5040191;28;20053;-85
2022/06/23 11:36:05;;;;;;;4.43;1.45;;;;;;;26.21;63.20;100192.31;5056879;28;20057;-85
2022/06/23 11:38:46;;;;;;;6.68;1.73;;;;;;;25.89;64.08;100194.03;5074101;28;20108;-85
2022/06/23 11:41:19;;;;;;;6.30;1.30;;;;;;;26.13;61.57;100195.84;5058261;28;20064;-85
2022/06/23 11:43:46;;;;;;;;;;;;;;;26.39;62.24;100196.59;5074559;28;20075;-85
2022/06/23 11:46:18;;;;;;;5.97;1.40;;;;;;;26.18;62.97;100197.19;5054792;28;19995;-84
2022/06/23 11:49:04;;;;;;;4.97;1.40;;;;;;;26.13;62.40;100165.50;5041095;28;20084;-85
2022/06/23 11:52:04;;;;;;;3.25;1.15;;;;;;;25.84;63.97;100191.03;5049610;28;20049;-85
2022/06/23 11:54:52;;;;;;;6.47;1.63;;;;;;;26.17;63.68;100190.97;5041460;28;20045;-85
2022/06/23 11:57:42;;;;;;;7.78;1.52;;;;;;;25.25;65.96;100148.38;5069464;28;20048;-86
2022/06/23 12:00:13;;;;;;;5.15;1.30;;;;;;;25.51;64.29;100166.09;5060447;28;20459;-85
2022/06/23 12:03:28;;;;;;;6.47;1.48;;;;;;;25.33;65.73;100196.56;5048304;28;20052;-84
2022/06/23 12:06:14;;;;;;;5.20;1.42;;;;;;;25.22;65.94;100153.19;5060422;28;20053;-86
2022/06/23 12:08:47;;;;;;;5.10;1.33;;;;;;;25.66;65.12;100193.06;5067740;28;20053;-85
2022/06/23 12:11:14;;;;;;;8.15;1.45;;;;;;;25.58;64.20;100126.88;5047572;28;20050;-85
2022/06/23 12:13:42;;;;;;;7.10;1.75;;;;;;;25.85;64.57;100157.00;5075156;28;20123;-82
2022/06/23 12:16:09;;;;;;;5.40;1.65;;;;;;;25.83;64.40;100124.97;5061593;28;20193;-85
2022/06/23 12:18:53;;;;;;;5.63;1.60;;;;;;;25.81;66.25;100136.91;5061655;28;20045;-85
2022/06/23 12:21:25;;;;;;;6.13;1.23;;;;;;;26.33;64.12;100165.94;5063454;28;20055;-85
2022/06/23 12:24:06;;;;;;;9.90;1.77;;;;;;;26.17;63.69;100128.41;5067973;28;20132;-85
2022/06/23 12:26:43;;;;;;;5.93;1.42;;;;;;;25.90;63.79;100117.91;5058312;28;20107;-85
2022/06/23 12:29:18;;;;;;;10.95;1.67;;;;;;;26.22;63.94;100167.13;5053716;28;20055;-85
2022/06/23 12:32:12;;;;;;;7.00;1.55;;;;;;;26.35;63.48;100147.81;5054159;28;20104;-84
2022/06/23 12:34:50;;;;;;;6.72;1.73;;;;;;;25.92;63.85;100107.88;5059583;28;20045;-85